sensor_id;sensor_type;location;lat;lon;timestamp;pressure;altitude;pressure_sealevel;temperature;humidity
69351;BME280;57106;51.446;-2.606;2023-03-14T00:00:40;99003.53;;;8.17;69.12
69351;BME280;57106;51.446;-2.606;2023-03-14T00:03:05;99015.01;;;8.28;69.40
69351;BME280;57106;51.446;-2.606;2023-03-14T00:05:31;99020.51;;;8.50;69.66
69351;BME280;57106;51.446;-2.606;2023-03-14T00:07:57;99024.48;;;8.37;69.67
69351;BME280;57106;51.446;-2.606;2023-03-14T00:10:22;99032.60;;;8.26;68.99
69351;BME280;57106;51.446;-2.606;2023-03-14T00:12:48;99043.93;;;8.31;68.43
69351;BME280;57106;51.446;-2.606;2023-03-14T00:15:14;99048.87;;;8.12;67.65
69351;BME280;57106;51.446;-2.606;2023-03-14T00:17:42;99067.25;;;8.09;67.82
69351;BME280;57106;51.446;-2.606;2023-03-14T00:20:06;99084.42;;;7.88;66.68
69351;BME280;57106;51.446;-2.606;2023-03-14T00:22:31;99096.93;;;7.94;65.26
69351;BME280;57106;51.446;-2.606;2023-03-14T00:24:57;99108.89;;;7.98;65.20
69351;BME280;57106;51.446;-2.606;2023-03-14T00:27:22;99111.42;;;8.03;64.40
69351;BME280;57106;51.446;-2.606;2023-03-14T00:29:47;99130.20;;;8.00;64.16
69351;BME280;57106;51.446;-2.606;2023-03-14T00:32:13;99133.84;;;7.76;63.39
69351;BME280;57106;51.446;-2.606;2023-03-14T00:34:39;99151.11;;;7.65;63.29
69351;BME280;57106;51.446;-2.606;2023-03-14T00:37:05;99152.63;;;7.67;63.72
69351;BME280;57106;51.446;-2.606;2023-03-14T00:39:30;99172.17;;;7.68;63.40
69351;BME280;57106;51.446;-2.606;2023-03-14T00:41:56;99171.74;;;7.80;63.38
69351;BME280;57106;51.446;-2.606;2023-03-14T00:44:21;99179.74;;;7.75;63.19
69351;BME280;57106;51.446;-2.606;2023-03-14T00:46:47;99197.19;;;7.45;62.96
69351;BME280;57106;51.446;-2.606;2023-03-14T00:49:13;99194.73;;;7.57;63.72
69351;BME280;57106;51.446;-2.606;2023-03-14T00:51:38;99203.47;;;7.53;63.40
69351;BME280;57106;51.446;-2.606;2023-03-14T00:54:04;99215.96;;;7.46;62.64
69351;BME280;57106;51.446;-2.606;2023-03-14T00:56:30;99221.16;;;7.32;63.99
69351;BME280;57106;51.446;-2.606;2023-03-14T00:58:56;99229.38;;;7.50;63.73
69351;BME280;57106;51.446;-2.606;2023-03-14T01:01:21;99237.03;;;7.54;63.27
69351;BME280;57106;51.446;-2.606;2023-03-14T01:03:47;99243.39;;;7.41;63.22
69351;BME280;57106;51.446;-2.606;2023-03-14T01:06:14;99250.17;;;7.39;64.58
69351;BME280;57106;51.446;-2.606;2023-03-14T01:08:39;99258.44;;;7.51;63.77
69351;BME280;57106;51.446;-2.606;2023-03-14T01:11:06;99264.51;;;7.63;63.39
69351;BME280;57106;51.446;-2.606;2023-03-14T01:13:29;99276.94;;;7.58;63.15
69351;BME280;57106;51.446;-2.606;2023-03-14T01:16:00;99276.16;;;7.40;62.40
69351;BME280;57106;51.446;-2.606;2023-03-14T01:18:20;99290.74;;;7.37;62.16
69351;BME280;57106;51.446;-2.606;2023-03-14T01:20:46;99294.00;;;7.39;61.64
69351;BME280;57106;51.446;-2.606;2023-03-14T01:23:12;99306.78;;;7.29;61.65
69351;BME280;57106;51.446;-2.606;2023-03-14T01:25:41;99314.82;;;7.42;62.09
69351;BME280;57106;51.446;-2.606;2023-03-14T01:28:04;99327.05;;;7.26;62.22
69351;BME280;57106;51.446;-2.606;2023-03-14T01:30:29;99330.11;;;7.30;62.53
69351;BME280;57106;51.446;-2.606;2023-03-14T01:32:54;99337.41;;;7.32;62.72
69351;BME280;57106;51.446;-2.606;2023-03-14T01:35:20;99337.14;;;7.63;62.45
69351;BME280;57106;51.446;-2.606;2023-03-14T01:37:46;99331.88;;;7.59;62.23
69351;BME280;57106;51.446;-2.606;2023-03-14T01:40:12;99343.82;;;7.70;62.46
69351;BME280;57106;51.446;-2.606;2023-03-14T01:42:37;99356.41;;;7.62;62.64
69351;BME280;57106;51.446;-2.606;2023-03-14T01:45:04;99368.92;;;7.47;63.00
69351;BME280;57106;51.446;-2.606;2023-03-14T01:47:28;99372.06;;;7.65;62.54
69351;BME280;57106;51.446;-2.606;2023-03-14T01:49:57;99384.48;;;7.67;63.11
69351;BME280;57106;51.446;-2.606;2023-03-14T01:52:22;99397.69;;;7.61;63.05
69351;BME280;57106;51.446;-2.606;2023-03-14T01:54:48;99400.77;;;7.81;62.77
69351;BME280;57106;51.446;-2.606;2023-03-14T01:57:14;99404.50;;;7.84;62.52
69351;BME280;57106;51.446;-2.606;2023-03-14T01:59:37;99403.71;;;7.57;63.63
69351;BME280;57106;51.446;-2.606;2023-03-14T02:02:04;99403.83;;;7.41;62.79
69351;BME280;57106;51.446;-2.606;2023-03-14T02:04:30;99410.78;;;7.48;63.42
69351;BME280;57106;51.446;-2.606;2023-03-14T02:07:01;99422.97;;;7.51;63.54
69351;BME280;57106;51.446;-2.606;2023-03-14T02:09:20;99427.27;;;7.57;63.62
69351;BME280;57106;51.446;-2.606;2023-03-14T02:11:45;99430.14;;;7.44;63.53
69351;BME280;57106;51.446;-2.606;2023-03-14T02:14:20;99430.93;;;7.38;63.25
69351;BME280;57106;51.446;-2.606;2023-03-14T02:16:42;99433.49;;;7.25;63.61
69351;BME280;57106;51.446;-2.606;2023-03-14T02:19:03;99438.64;;;7.31;62.96
69351;BME280;57106;51.446;-2.606;2023-03-14T02:21:38;99444.76;;;7.24;63.40
69351;BME280;57106;51.446;-2.606;2023-03-14T02:24:01;99443.92;;;6.92;63.63
69351;BME280;57106;51.446;-2.606;2023-03-14T02:26:22;99447.55;;;6.98;63.96
69351;BME280;57106;51.446;-2.606;2023-03-14T02:28:45;99452.82;;;6.85;64.23
69351;BME280;57106;51.446;-2.606;2023-03-14T02:31:11;99455.22;;;6.86;63.64
69351;BME280;57106;51.446;-2.606;2023-03-14T02:33:37;99460.79;;;7.03;63.50
69351;BME280;57106;51.446;-2.606;2023-03-14T02:36:05;99466.32;;;7.01;63.75
69351;BME280;57106;51.446;-2.606;2023-03-14T02:38:33;99468.08;;;7.04;63.98
69351;BME280;57106;51.446;-2.606;2023-03-14T02:40:53;99475.74;;;6.85;63.93
69351;BME280;57106;51.446;-2.606;2023-03-14T02:43:19;99473.73;;;6.92;64.03
69351;BME280;57106;51.446;-2.606;2023-03-14T02:45:45;99484.50;;;6.84;64.69
69351;BME280;57106;51.446;-2.606;2023-03-14T02:48:15;99488.82;;;6.90;64.07
69351;BME280;57106;51.446;-2.606;2023-03-14T02:50:36;99495.52;;;6.95;64.27
69351;BME280;57106;51.446;-2.606;2023-03-14T02:53:02;99503.61;;;6.94;63.98
69351;BME280;57106;51.446;-2.606;2023-03-14T02:55:27;99504.59;;;7.00;64.30
69351;BME280;57106;51.446;-2.606;2023-03-14T02:57:53;99514.51;;;6.86;64.42
69351;BME280;57106;51.446;-2.606;2023-03-14T03:00:18;99521.21;;;6.99;63.99
69351;BME280;57106;51.446;-2.606;2023-03-14T03:02:44;99524.76;;;6.70;64.38
69351;BME280;57106;51.446;-2.606;2023-03-14T03:05:09;99528.50;;;6.93;64.08
69351;BME280;57106;51.446;-2.606;2023-03-14T03:07:35;99532.87;;;6.82;64.11
69351;BME280;57106;51.446;-2.606;2023-03-14T03:10:02;99533.36;;;6.92;63.50
69351;BME280;57106;51.446;-2.606;2023-03-14T03:12:26;99543.30;;;6.98;63.74
69351;BME280;57106;51.446;-2.606;2023-03-14T03:14:52;99549.04;;;7.21;63.33
69351;BME280;57106;51.446;-2.606;2023-03-14T03:17:18;99546.78;;;7.22;63.20
69351;BME280;57106;51.446;-2.606;2023-03-14T03:19:43;99547.85;;;7.28;62.86
69351;BME280;57106;51.446;-2.606;2023-03-14T03:22:09;99550.28;;;7.16;62.63
69351;BME280;57106;51.446;-2.606;2023-03-14T03:24:35;99551.22;;;6.99;63.03
69351;BME280;57106;51.446;-2.606;2023-03-14T03:27:02;99554.96;;;7.21;62.58
69351;BME280;57106;51.446;-2.606;2023-03-14T03:29:26;99566.11;;;7.41;62.30
69351;BME280;57106;51.446;-2.606;2023-03-14T03:31:52;99572.61;;;7.39;62.54
69351;BME280;57106;51.446;-2.606;2023-03-14T03:34:17;99577.91;;;7.33;63.12
69351;BME280;57106;51.446;-2.606;2023-03-14T03:36:43;99581.68;;;7.49;62.41
69351;BME280;57106;51.446;-2.606;2023-03-14T03:39:09;99582.21;;;7.49;62.68
69351;BME280;57106;51.446;-2.606;2023-03-14T03:41:34;99595.70;;;7.52;61.96
69351;BME280;57106;51.446;-2.606;2023-03-14T03:44:00;99594.11;;;7.52;61.87
69351;BME280;57106;51.446;-2.606;2023-03-14T03:46:26;99602.61;;;7.59;61.58
69351;BME280;57106;51.446;-2.606;2023-03-14T03:48:54;99603.93;;;7.62;61.76
69351;BME280;57106;51.446;-2.606;2023-03-14T03:51:17;99612.62;;;7.45;62.37
69351;BME280;57106;51.446;-2.606;2023-03-14T03:53:43;99619.04;;;7.32;62.83
69351;BME280;57106;51.446;-2.606;2023-03-14T03:56:09;99623.05;;;7.32;62.63
69351;BME280;57106;51.446;-2.606;2023-03-14T03:58:34;99626.08;;;7.22;62.55
69351;BME280;57106;51.446;-2.606;2023-03-14T04:01:00;99626.63;;;7.15;62.64
69351;BME280;57106;51.446;-2.606;2023-03-14T04:03:25;99639.84;;;6.99;63.51
69351;BME280;57106;51.446;-2.606;2023-03-14T04:05:59;99640.10;;;6.92;63.36
69351;BME280;57106;51.446;-2.606;2023-03-14T04:08:17;99644.68;;;6.82;63.50
69351;BME280;57106;51.446;-2.606;2023-03-14T04:10:42;99653.27;;;6.90;63.93
69351;BME280;57106;51.446;-2.606;2023-03-14T04:13:08;99666.35;;;6.62;63.69
69351;BME280;57106;51.446;-2.606;2023-03-14T04:15:33;99670.41;;;6.73;64.01
69351;BME280;57106;51.446;-2.606;2023-03-14T04:18:00;99667.91;;;6.61;63.65
69351;BME280;57106;51.446;-2.606;2023-03-14T04:20:25;99679.75;;;6.47;64.52
69351;BME280;57106;51.446;-2.606;2023-03-14T04:25:16;99690.33;;;6.45;64.22
69351;BME280;57106;51.446;-2.606;2023-03-14T04:27:42;99694.65;;;6.43;64.51
69351;BME280;57106;51.446;-2.606;2023-03-14T04:30:13;99700.68;;;6.67;63.99
69351;BME280;57106;51.446;-2.606;2023-03-14T04:32:33;99707.49;;;6.63;63.62
69351;BME280;57106;51.446;-2.606;2023-03-14T04:35:00;99713.58;;;6.74;63.80
69351;BME280;57106;51.446;-2.606;2023-03-14T04:37:24;99724.77;;;6.65;63.52
69351;BME280;57106;51.446;-2.606;2023-03-14T04:39:50;99729.45;;;6.94;63.11
69351;BME280;57106;51.446;-2.606;2023-03-14T04:42:16;99736.00;;;6.98;62.86
69351;BME280;57106;51.446;-2.606;2023-03-14T04:44:41;99739.88;;;6.87;62.91
69351;BME280;57106;51.446;-2.606;2023-03-14T04:47:07;99742.78;;;7.14;62.84
69351;BME280;57106;51.446;-2.606;2023-03-14T04:49:33;99741.05;;;7.06;62.78
69351;BME280;57106;51.446;-2.606;2023-03-14T04:51:58;99746.26;;;7.12;62.78
69351;BME280;57106;51.446;-2.606;2023-03-14T04:54:24;99750.78;;;7.33;62.92
69351;BME280;57106;51.446;-2.606;2023-03-14T04:56:50;99759.96;;;7.39;62.68
69351;BME280;57106;51.446;-2.606;2023-03-14T04:59:15;99759.38;;;7.26;62.67
69351;BME280;57106;51.446;-2.606;2023-03-14T05:01:41;99753.53;;;7.44;62.38
69351;BME280;57106;51.446;-2.606;2023-03-14T05:04:07;99748.81;;;7.44;62.32
69351;BME280;57106;51.446;-2.606;2023-03-14T05:06:32;99743.26;;;7.36;62.17
69351;BME280;57106;51.446;-2.606;2023-03-14T05:08:58;99740.49;;;7.18;62.98
69351;BME280;57106;51.446;-2.606;2023-03-14T05:11:24;99738.80;;;7.10;63.20
69351;BME280;57106;51.446;-2.606;2023-03-14T05:13:51;99733.33;;;6.92;63.91
69351;BME280;57106;51.446;-2.606;2023-03-14T05:16:16;99742.81;;;7.03;63.88
69351;BME280;57106;51.446;-2.606;2023-03-14T05:23:33;99761.66;;;6.91;64.10
69351;BME280;57106;51.446;-2.606;2023-03-14T05:42:58;99792.76;;;6.31;65.14
69351;BME280;57106;51.446;-2.606;2023-03-14T06:02:23;99866.70;;;6.62;66.01
69351;BME280;57106;51.446;-2.606;2023-03-14T06:04:49;99867.89;;;6.64;66.02
69351;BME280;57106;51.446;-2.606;2023-03-14T06:07:15;99876.08;;;6.72;66.34
69351;BME280;57106;51.446;-2.606;2023-03-14T06:09:40;99879.53;;;6.74;65.93
69351;BME280;57106;51.446;-2.606;2023-03-14T06:12:06;99879.15;;;6.90;65.62
69351;BME280;57106;51.446;-2.606;2023-03-14T06:14:32;99882.93;;;6.71;65.68
69351;BME280;57106;51.446;-2.606;2023-03-14T06:16:58;99887.95;;;6.55;66.22
69351;BME280;57106;51.446;-2.606;2023-03-14T06:19:23;99894.49;;;6.48;66.71
69351;BME280;57106;51.446;-2.606;2023-03-14T06:21:49;99901.21;;;6.42;66.20
69351;BME280;57106;51.446;-2.606;2023-03-14T06:24:14;99912.97;;;6.30;67.04
69351;BME280;57106;51.446;-2.606;2023-03-14T06:26:40;99915.11;;;6.33;66.75
69351;BME280;57106;51.446;-2.606;2023-03-14T06:29:06;99922.13;;;6.37;66.41
69351;BME280;57106;51.446;-2.606;2023-03-14T06:31:32;99929.69;;;6.36;66.56
69351;BME280;57106;51.446;-2.606;2023-03-14T06:33:58;99946.85;;;6.55;66.32
69351;BME280;57106;51.446;-2.606;2023-03-14T06:36:23;99956.74;;;6.63;66.21
69351;BME280;57106;51.446;-2.606;2023-03-14T06:38:50;99947.69;;;6.82;65.38
69351;BME280;57106;51.446;-2.606;2023-03-14T06:41:14;99950.82;;;6.58;65.69
69351;BME280;57106;51.446;-2.606;2023-03-14T06:43:40;99963.10;;;6.59;65.50
69351;BME280;57106;51.446;-2.606;2023-03-14T06:46:06;99962.32;;;6.71;65.28
69351;BME280;57106;51.446;-2.606;2023-03-14T06:48:31;99964.76;;;6.52;65.34
69351;BME280;57106;51.446;-2.606;2023-03-14T06:50:57;99971.27;;;6.56;65.48
69351;BME280;57106;51.446;-2.606;2023-03-14T06:53:23;99981.50;;;6.62;65.56
69351;BME280;57106;51.446;-2.606;2023-03-14T06:55:49;99990.38;;;6.69;65.63
69351;BME280;57106;51.446;-2.606;2023-03-14T06:58:15;99997.98;;;6.72;65.40
69351;BME280;57106;51.446;-2.606;2023-03-14T07:00:40;100002.01;;;6.72;65.36
69351;BME280;57106;51.446;-2.606;2023-03-14T07:03:05;100005.85;;;6.70;65.69
69351;BME280;57106;51.446;-2.606;2023-03-14T07:05:31;100009.37;;;6.57;65.92
69351;BME280;57106;51.446;-2.606;2023-03-14T07:07:58;100015.14;;;6.45;66.26
69351;BME280;57106;51.446;-2.606;2023-03-14T07:10:22;100015.57;;;6.62;66.11
69351;BME280;57106;51.446;-2.606;2023-03-14T07:12:48;100021.96;;;6.56;66.10
69351;BME280;57106;51.446;-2.606;2023-03-14T07:15:14;100028.17;;;6.49;65.94
69351;BME280;57106;51.446;-2.606;2023-03-14T07:17:42;100035.59;;;6.73;65.35
69351;BME280;57106;51.446;-2.606;2023-03-14T07:20:06;100043.27;;;6.66;65.63
69351;BME280;57106;51.446;-2.606;2023-03-14T07:22:31;100050.79;;;6.79;65.57
69351;BME280;57106;51.446;-2.606;2023-03-14T07:24:58;100060.49;;;6.47;65.40
69351;BME280;57106;51.446;-2.606;2023-03-14T07:27:22;100067.61;;;6.50;65.53
69351;BME280;57106;51.446;-2.606;2023-03-14T07:29:48;100074.65;;;6.58;64.92
69351;BME280;57106;51.446;-2.606;2023-03-14T07:32:19;100080.57;;;6.67;65.01
69351;BME280;57106;51.446;-2.606;2023-03-14T07:51:50;100187.03;;;7.15;63.67
69351;BME280;57106;51.446;-2.606;2023-03-14T07:54:07;100196.45;;;7.37;62.35
69351;BME280;57106;51.446;-2.606;2023-03-14T07:56:30;100204.52;;;7.44;62.90
69351;BME280;57106;51.446;-2.606;2023-03-14T07:58:57;100211.99;;;7.30;62.99
69351;BME280;57106;51.446;-2.606;2023-03-14T08:01:22;100221.00;;;7.74;62.65
69351;BME280;57106;51.446;-2.606;2023-03-14T08:03:47;100226.33;;;7.82;62.01
69351;BME280;57106;51.446;-2.606;2023-03-14T08:06:13;100231.31;;;7.84;62.03
69351;BME280;57106;51.446;-2.606;2023-03-14T08:08:39;100241.10;;;7.96;62.18
69351;BME280;57106;51.446;-2.606;2023-03-14T08:11:05;100256.51;;;7.92;61.69
69351;BME280;57106;51.446;-2.606;2023-03-14T08:13:30;100264.99;;;7.98;61.36
69351;BME280;57106;51.446;-2.606;2023-03-14T08:15:56;100272.89;;;7.88;61.29
69351;BME280;57106;51.446;-2.606;2023-03-14T08:18:21;100282.21;;;8.03;61.14
69351;BME280;57106;51.446;-2.606;2023-03-14T08:20:47;100290.91;;;7.75;60.78
69351;BME280;57106;51.446;-2.606;2023-03-14T08:23:12;100299.71;;;7.21;62.19
69351;BME280;57106;51.446;-2.606;2023-03-14T08:25:38;100302.03;;;7.03;62.88
69351;BME280;57106;51.446;-2.606;2023-03-14T08:28:05;100308.01;;;7.14;62.71
69351;BME280;57106;51.446;-2.606;2023-03-14T08:30:30;100319.72;;;7.40;62.16
69351;BME280;57106;51.446;-2.606;2023-03-14T08:32:57;100321.14;;;7.37;62.30
69351;BME280;57106;51.446;-2.606;2023-03-14T08:35:20;100327.51;;;7.47;62.76
69351;BME280;57106;51.446;-2.606;2023-03-14T08:37:46;100338.58;;;7.57;62.38
69351;BME280;57106;51.446;-2.606;2023-03-14T08:40:13;100349.99;;;7.42;62.33
69351;BME280;57106;51.446;-2.606;2023-03-14T08:42:38;100359.47;;;7.24;61.87
69351;BME280;57106;51.446;-2.606;2023-03-14T08:45:04;100367.75;;;7.26;62.29
69351;BME280;57106;51.446;-2.606;2023-03-14T08:49:55;100387.27;;;7.36;61.79
69351;BME280;57106;51.446;-2.606;2023-03-14T08:52:20;100395.59;;;7.04;62.65
69351;BME280;57106;51.446;-2.606;2023-03-14T08:54:46;100407.00;;;7.07;62.77
69351;BME280;57106;51.446;-2.606;2023-03-14T08:57:11;100419.22;;;6.83;63.76
69351;BME280;57106;51.446;-2.606;2023-03-14T08:59:37;100434.72;;;6.46;64.40
69351;BME280;57106;51.446;-2.606;2023-03-14T09:02:03;100447.39;;;6.23;65.44
69351;BME280;57106;51.446;-2.606;2023-03-14T09:04:29;100447.97;;;6.31;65.18
69351;BME280;57106;51.446;-2.606;2023-03-14T09:06:54;100451.91;;;6.61;64.36
69351;BME280;57106;51.446;-2.606;2023-03-14T09:09:20;100458.89;;;6.77;63.64
69351;BME280;57106;51.446;-2.606;2023-03-14T09:11:45;100467.50;;;6.90;63.88
69351;BME280;57106;51.446;-2.606;2023-03-14T09:14:11;100479.47;;;6.85;63.69
69351;BME280;57106;51.446;-2.606;2023-03-14T09:16:37;100485.77;;;6.66;64.03
69351;BME280;57106;51.446;-2.606;2023-03-14T09:19:02;100489.87;;;6.71;63.99
69351;BME280;57106;51.446;-2.606;2023-03-14T09:21:28;100494.84;;;6.66;64.09
69351;BME280;57106;51.446;-2.606;2023-03-14T09:23:54;100497.41;;;6.88;63.27
69351;BME280;57106;51.446;-2.606;2023-03-14T09:26:20;100508.42;;;7.11;62.90
69351;BME280;57106;51.446;-2.606;2023-03-14T09:28:45;100514.48;;;7.10;62.58
69351;BME280;57106;51.446;-2.606;2023-03-14T09:31:13;100524.03;;;7.26;62.36
69351;BME280;57106;51.446;-2.606;2023-03-14T09:33:37;100534.17;;;6.99;62.91
69351;BME280;57106;51.446;-2.606;2023-03-14T09:53:04;100577.76;;;7.45;62.09
69351;BME280;57106;51.446;-2.606;2023-03-14T09:55:27;100584.39;;;7.85;61.58
69351;BME280;57106;51.446;-2.606;2023-03-14T09:57:56;100594.61;;;7.82;61.40
69351;BME280;57106;51.446;-2.606;2023-03-14T10:00:21;100614.72;;;7.71;61.26
69351;BME280;57106;51.446;-2.606;2023-03-14T10:02:49;100614.81;;;7.57;61.30
69351;BME280;57106;51.446;-2.606;2023-03-14T10:05:16;100614.67;;;7.53;62.20
69351;BME280;57106;51.446;-2.606;2023-03-14T10:07:35;100620.72;;;7.85;61.77
69351;BME280;57106;51.446;-2.606;2023-03-14T10:10:10;100631.84;;;8.09;60.63
69351;BME280;57106;51.446;-2.606;2023-03-14T10:12:33;100645.73;;;8.17;60.04
69351;BME280;57106;51.446;-2.606;2023-03-14T10:14:52;100653.71;;;7.80;60.13
69351;BME280;57106;51.446;-2.606;2023-03-14T10:17:20;100664.43;;;7.49;60.48
69351;BME280;57106;51.446;-2.606;2023-03-14T10:19:51;100671.52;;;7.31;60.44
69351;BME280;57106;51.446;-2.606;2023-03-14T10:22:15;100676.92;;;7.83;59.40
69351;BME280;57106;51.446;-2.606;2023-03-14T10:24:37;100686.38;;;8.19;59.13
69351;BME280;57106;51.446;-2.606;2023-03-14T10:27:04;100694.18;;;7.87;58.98
69351;BME280;57106;51.446;-2.606;2023-03-14T10:29:27;100709.78;;;8.39;58.80
69351;BME280;57106;51.446;-2.606;2023-03-14T10:31:53;100715.24;;;7.75;58.83
69351;BME280;57106;51.446;-2.606;2023-03-14T10:34:22;100723.66;;;7.95;58.10
69351;BME280;57106;51.446;-2.606;2023-03-14T10:36:43;100735.06;;;7.77;57.90
69351;BME280;57106;51.446;-2.606;2023-03-14T10:39:24;100747.21;;;7.61;57.69
69351;BME280;57106;51.446;-2.606;2023-03-14T10:41:35;100750.17;;;7.89;57.81
69351;BME280;57106;51.446;-2.606;2023-03-14T10:44:01;100757.91;;;7.89;56.00
69351;BME280;57106;51.446;-2.606;2023-03-14T10:48:54;100770.49;;;8.07;56.76
69351;BME280;57106;51.446;-2.606;2023-03-14T10:51:24;100772.69;;;8.61;57.14
69351;BME280;57106;51.446;-2.606;2023-03-14T10:53:45;100782.19;;;8.43;57.00
69351;BME280;57106;51.446;-2.606;2023-03-14T10:56:12;100788.53;;;8.50;56.46
69351;BME280;57106;51.446;-2.606;2023-03-14T10:58:38;100794.62;;;8.81;56.25
69351;BME280;57106;51.446;-2.606;2023-03-14T11:01:11;100795.72;;;8.96;55.67
69351;BME280;57106;51.446;-2.606;2023-03-14T11:03:27;100799.89;;;9.21;54.27
69351;BME280;57106;51.446;-2.606;2023-03-14T11:08:23;100811.49;;;9.02;54.64
69351;BME280;57106;51.446;-2.606;2023-03-14T11:10:44;100813.16;;;8.70;55.44
69351;BME280;57106;51.446;-2.606;2023-03-14T11:13:15;100814.23;;;9.06;55.42
69351;BME280;57106;51.446;-2.606;2023-03-14T11:15:36;100813.18;;;8.86;55.99
69351;BME280;57106;51.446;-2.606;2023-03-14T11:20:33;100823.62;;;8.31;57.72
69351;BME280;57106;51.446;-2.606;2023-03-14T11:22:59;100818.48;;;8.03;57.29
69351;BME280;57106;51.446;-2.606;2023-03-14T11:25:21;100827.23;;;8.55;55.95
69351;BME280;57106;51.446;-2.606;2023-03-14T11:27:43;100821.11;;;8.34;55.72
69351;BME280;57106;51.446;-2.606;2023-03-14T11:32:41;100827.39;;;8.77;54.62
69351;BME280;57106;51.446;-2.606;2023-03-14T11:37:33;100829.17;;;8.85;51.90
69351;BME280;57106;51.446;-2.606;2023-03-14T11:52:00;100841.14;;;9.01;52.32
69351;BME280;57106;51.446;-2.606;2023-03-14T11:54:31;100843.34;;;9.29;51.63
69351;BME280;57106;51.446;-2.606;2023-03-14T11:56:52;100841.55;;;9.71;51.99
69351;BME280;57106;51.446;-2.606;2023-03-14T11:59:17;100842.26;;;9.47;50.46
69351;BME280;57106;51.446;-2.606;2023-03-14T12:01:52;100846.53;;;9.57;51.47
69351;BME280;57106;51.446;-2.606;2023-03-14T12:04:13;100852.38;;;9.82;51.40
69351;BME280;57106;51.446;-2.606;2023-03-14T12:06:35;100858.35;;;9.49;51.39
69351;BME280;57106;51.446;-2.606;2023-03-14T12:08:58;100865.77;;;9.72;50.74
69351;BME280;57106;51.446;-2.606;2023-03-14T12:11:31;100855.45;;;9.38;50.45
69351;BME280;57106;51.446;-2.606;2023-03-14T12:13:50;100850.51;;;9.42;50.85
69351;BME280;57106;51.446;-2.606;2023-03-14T12:16:24;100861.74;;;9.58;50.96
69351;BME280;57106;51.446;-2.606;2023-03-14T12:18:40;100858.93;;;9.79;51.17
69351;BME280;57106;51.446;-2.606;2023-03-14T12:21:07;100860.30;;;9.84;49.84
69351;BME280;57106;51.446;-2.606;2023-03-14T12:23:37;100864.83;;;9.90;50.80
69351;BME280;57106;51.446;-2.606;2023-03-14T12:26:06;100862.18;;;9.73;48.69
69351;BME280;57106;51.446;-2.606;2023-03-14T12:28:30;100864.63;;;9.74;46.30
69351;BME280;57106;51.446;-2.606;2023-03-14T12:30:47;100862.70;;;9.67;45.22
69351;BME280;57106;51.446;-2.606;2023-03-14T12:33:27;100870.62;;;9.87;45.22
69351;BME280;57106;51.446;-2.606;2023-03-14T12:35:40;100868.65;;;9.86;45.96
69351;BME280;57106;51.446;-2.606;2023-03-14T12:38:13;100862.77;;;10.05;45.57
69351;BME280;57106;51.446;-2.606;2023-03-14T12:40:31;100859.80;;;10.01;45.77
69351;BME280;57106;51.446;-2.606;2023-03-14T12:42:59;100867.15;;;10.06;44.88
69351;BME280;57106;51.446;-2.606;2023-03-14T12:45:24;100865.53;;;10.27;45.31
69351;BME280;57106;51.446;-2.606;2023-03-14T12:47:53;100873.87;;;10.25;45.10
69351;BME280;57106;51.446;-2.606;2023-03-14T12:50:20;100877.66;;;10.23;44.49
69351;BME280;57106;51.446;-2.606;2023-03-14T12:52:44;100881.00;;;10.22;45.92
69351;BME280;57106;51.446;-2.606;2023-03-14T12:55:06;100877.76;;;10.15;45.17
69351;BME280;57106;51.446;-2.606;2023-03-14T12:57:35;100880.28;;;10.13;45.70
69351;BME280;57106;51.446;-2.606;2023-03-14T12:59:56;100881.14;;;10.24;45.70
69351;BME280;57106;51.446;-2.606;2023-03-14T13:02:24;100883.41;;;10.20;45.93
69351;BME280;57106;51.446;-2.606;2023-03-14T13:04:52;100889.95;;;10.02;47.18
69351;BME280;57106;51.446;-2.606;2023-03-14T13:07:12;100891.91;;;10.00;45.57
69351;BME280;57106;51.446;-2.606;2023-03-14T13:12:03;100893.25;;;10.10;45.68
69351;BME280;57106;51.446;-2.606;2023-03-14T13:14:31;100886.92;;;10.21;44.96
69351;BME280;57106;51.446;-2.606;2023-03-14T13:16:53;100885.24;;;10.63;44.81
69351;BME280;57106;51.446;-2.606;2023-03-14T13:19:20;100888.85;;;10.74;45.14
69351;BME280;57106;51.446;-2.606;2023-03-14T13:21:44;100900.09;;;10.96;45.54
69351;BME280;57106;51.446;-2.606;2023-03-14T13:24:20;100897.41;;;10.81;44.44
69351;BME280;57106;51.446;-2.606;2023-03-14T13:26:38;100899.29;;;10.79;45.26
69351;BME280;57106;51.446;-2.606;2023-03-14T13:29:09;100898.59;;;10.74;45.34
69351;BME280;57106;51.446;-2.606;2023-03-14T13:31:26;100890.22;;;10.71;45.11
69351;BME280;57106;51.446;-2.606;2023-03-14T13:33:58;100894.32;;;10.72;45.56
69351;BME280;57106;51.446;-2.606;2023-03-14T13:36:26;100896.15;;;10.87;44.89
69351;BME280;57106;51.446;-2.606;2023-03-14T13:38:43;100896.62;;;10.79;44.04
69351;BME280;57106;51.446;-2.606;2023-03-14T13:41:11;100891.59;;;10.66;45.03
69351;BME280;57106;51.446;-2.606;2023-03-14T13:46:03;100898.18;;;10.91;43.95
69351;BME280;57106;51.446;-2.606;2023-03-14T13:55:43;100904.62;;;11.10;44.07
69351;BME280;57106;51.446;-2.606;2023-03-14T13:58:13;100906.02;;;11.04;45.08
69351;BME280;57106;51.446;-2.606;2023-03-14T14:00:33;100912.37;;;10.80;48.47
69351;BME280;57106;51.446;-2.606;2023-03-14T14:02:59;100918.47;;;10.88;50.03
69351;BME280;57106;51.446;-2.606;2023-03-14T14:05:27;100929.92;;;10.77;50.99
69351;BME280;57106;51.446;-2.606;2023-03-14T14:07:50;100928.41;;;10.72;50.91
69351;BME280;57106;51.446;-2.606;2023-03-14T14:10:15;100932.34;;;10.48;50.67
69351;BME280;57106;51.446;-2.606;2023-03-14T14:12:43;100930.10;;;10.43;50.63
69351;BME280;57106;51.446;-2.606;2023-03-14T14:15:09;100928.72;;;10.53;52.15
69351;BME280;57106;51.446;-2.606;2023-03-14T14:17:34;100929.88;;;10.50;52.72
69351;BME280;57106;51.446;-2.606;2023-03-14T14:19:59;100930.46;;;10.30;53.37
69351;BME280;57106;51.446;-2.606;2023-03-14T14:22:23;100921.27;;;10.33;51.93
69351;BME280;57106;51.446;-2.606;2023-03-14T14:24:55;100926.75;;;10.32;52.13
69351;BME280;57106;51.446;-2.606;2023-03-14T14:27:16;100930.97;;;10.41;51.20
69351;BME280;57106;51.446;-2.606;2023-03-14T14:29:59;100931.57;;;10.27;49.16
69351;BME280;57106;51.446;-2.606;2023-03-14T14:32:12;100942.93;;;10.31;47.82
69351;BME280;57106;51.446;-2.606;2023-03-14T14:34:39;100939.83;;;10.14;47.06
69351;BME280;57106;51.446;-2.606;2023-03-14T14:36:57;100942.99;;;10.02;47.65